createdAt,value
2018-07-15T00:02:57.822Z,15.09
2018-07-15T00:12:58.174Z,14.88
2018-07-15T00:22:57.850Z,14.75
2018-07-15T00:32:57.913Z,14.56
2018-07-15T00:42:57.873Z,14.54
2018-07-15T00:52:57.844Z,14.31
2018-07-15T01:02:57.870Z,14.17
2018-07-15T01:12:57.890Z,13.95
2018-07-15T01:22:57.826Z,13.88
2018-07-15T01:32:57.833Z,13.71
2018-07-15T01:42:57.908Z,13.51
2018-07-15T01:52:57.831Z,13.56
2018-07-15T02:02:57.923Z,13.43
2018-07-15T02:12:57.878Z,13.43
2018-07-15T02:22:57.829Z,13.29
2018-07-15T02:32:57.872Z,13.17
2018-07-15T02:42:57.798Z,13.12
2018-07-15T02:52:57.865Z,13.11
2018-07-15T03:02:57.853Z,13.09
2018-07-15T03:12:57.890Z,13.15
2018-07-15T03:22:57.897Z,13.09
2018-07-15T03:39:26.757Z,12.93
2018-07-15T03:42:57.839Z,12.81
2018-07-15T03:52:57.968Z,13.02
2018-07-15T04:02:57.863Z,13.25
2018-07-15T04:12:57.996Z,13.47
2018-07-15T04:22:57.990Z,13.58
2018-07-15T04:32:57.920Z,13.77
2018-07-15T04:42:57.957Z,14.1
2018-07-15T04:52:58.013Z,14.38
2018-07-15T05:02:57.974Z,14.57
2018-07-15T05:12:57.977Z,14.98
2018-07-15T05:22:58.051Z,15.79
2018-07-15T05:32:57.993Z,16.03
2018-07-15T05:42:58.059Z,16.06
2018-07-15T05:52:58.039Z,16.55
2018-07-15T06:02:58.119Z,17.26
2018-07-15T06:12:58.142Z,18.22
2018-07-15T06:22:58.057Z,23.76
2018-07-15T06:32:58.176Z,28.16
2018-07-15T06:42:58.068Z,30.84
2018-07-15T06:52:58.032Z,32.22
2018-07-15T07:02:58.100Z,32.98
2018-07-15T07:12:58.023Z,34.64
2018-07-15T07:22:58.187Z,34.88
2018-07-15T07:32:58.070Z,36.08
2018-07-15T07:42:58.241Z,36.95
2018-07-15T07:52:58.188Z,37.21
2018-07-15T08:02:58.067Z,37.68
2018-07-15T08:12:58.199Z,37.55
2018-07-15T08:22:58.168Z,38.44
2018-07-15T08:32:58.173Z,38.33
2018-07-15T08:42:58.121Z,37.89
2018-07-15T08:52:58.116Z,37.19
2018-07-15T09:02:58.177Z,38.1
2018-07-15T09:12:58.112Z,36.82
2018-07-15T09:22:58.212Z,31.27
2018-07-15T09:32:58.110Z,28.19
2018-07-15T09:42:58.231Z,26.49
2018-07-15T09:52:58.158Z,25.99
2018-07-15T10:02:58.131Z,25.83
2018-07-15T10:13:19.932Z,25.64
2018-07-15T10:22:58.122Z,25.49
2018-07-15T10:32:58.107Z,25.42
2018-07-15T10:42:58.133Z,25.39
2018-07-15T10:52:58.198Z,25.52
2018-07-15T11:03:02.336Z,25.75
2018-07-15T11:12:58.160Z,25.91
2018-07-15T11:22:58.134Z,25.99
2018-07-15T11:32:58.369Z,26.22
2018-07-15T11:42:58.138Z,26.39
2018-07-15T11:53:00.971Z,26.69
2018-07-15T12:03:03.218Z,26.57
2018-07-15T12:13:10.513Z,26.52
2018-07-15T12:23:34.091Z,26.65
2018-07-15T12:33:04.061Z,26.55
2018-07-15T12:43:06.800Z,26.65
2018-07-15T12:53:06.363Z,26.92
2018-07-15T13:03:04.908Z,26.8
2018-07-15T13:13:36.775Z,26.94
2018-07-15T13:23:04.750Z,26.99
2018-07-15T13:33:03.882Z,27.06
2018-07-15T13:43:03.766Z,27.24
2018-07-15T13:53:04.906Z,27.2
2018-07-15T14:03:03.309Z,27.19
2018-07-15T14:13:04.337Z,27.35
2018-07-15T14:23:05.120Z,27.42
2018-07-15T14:32:58.148Z,27.5
2018-07-15T14:42:58.223Z,27.42
2018-07-15T14:52:58.216Z,27.46
2018-07-15T15:03:04.785Z,27.5
2018-07-15T15:13:04.773Z,27.48
2018-07-15T15:23:03.605Z,27.5
2018-07-15T15:33:05.533Z,27.61
2018-07-15T15:43:04.543Z,27.32
2018-07-15T15:53:03.990Z,27.46
2018-07-15T16:03:35.587Z,27.46
2018-07-15T16:13:04.582Z,27.36
2018-07-15T16:23:04.525Z,27.35
2018-07-15T16:33:03.852Z,27.16
2018-07-15T16:43:03.888Z,27.04
2018-07-15T16:53:08.566Z,27.01
2018-07-15T17:03:03.499Z,27.02
2018-07-15T17:13:04.884Z,26.84
2018-07-15T17:23:04.317Z,26.69
2018-07-15T17:33:05.415Z,26.49
2018-07-15T17:43:04.717Z,26.35
2018-07-15T17:53:03.349Z,25.93
2018-07-15T18:03:04.426Z,25.86
2018-07-15T18:13:03.467Z,25.57
2018-07-15T18:23:04.765Z,25.27
2018-07-15T18:33:05.763Z,25
2018-07-15T18:43:20.215Z,24.75
2018-07-15T18:53:30.251Z,24.23
2018-07-15T19:03:35.787Z,23.89
2018-07-15T19:13:05.468Z,23.45
2018-07-15T19:23:04.978Z,23.01
2018-07-15T19:33:04.167Z,22.31
2018-07-15T19:43:04.906Z,21.71
2018-07-15T19:53:05.325Z,21.19
2018-07-15T20:03:36.437Z,20.72
2018-07-15T20:13:36.119Z,20.5
2018-07-15T20:23:03.400Z,20.02
2018-07-15T20:33:03.946Z,19.43
2018-07-15T20:43:03.243Z,19.2
2018-07-15T20:53:07.525Z,18.95
2018-07-15T21:03:29.146Z,18.7
2018-07-15T21:13:37.905Z,18.68
2018-07-15T21:23:03.181Z,18.65
2018-07-15T21:33:04.526Z,18.65
2018-07-15T21:42:58.353Z,18.52
2018-07-15T21:52:58.441Z,17.99
2018-07-15T22:02:58.424Z,17.7
2018-07-15T22:12:58.453Z,17.51
2018-07-15T22:22:58.393Z,17.2
2018-07-15T22:32:58.447Z,16.92
2018-07-15T22:42:58.309Z,16.89
2018-07-15T22:52:58.303Z,16.6
2018-07-15T23:02:58.488Z,16.6
2018-07-15T23:12:58.242Z,16.48
2018-07-15T23:23:04.021Z,16.49
2018-07-15T23:32:58.315Z,16.38
2018-07-15T23:42:58.246Z,16.3
2018-07-15T23:52:58.360Z,16.18
